Time;durP1;ratioP1;P1;durP2;ratioP2;P2;SDS_P1;SDS_P2;PMS_P1;PMS_P2;Temp;Humidity;BMP_temperature;BMP_pressure;BME280_temperature;BME280_humidity;BME280_pressure;Samples;Min_cycle;Max_cycle;Signal;HPM_P1;HPM_P2
2022/09/01 00:00:13;;;;;;;1.48;0.80;;;22.80;53.90;;;;;;10535711;28;20039;-51
2022/09/01 00:05:14;;;;;;;1.08;0.65;;;22.80;54.00;;;;;;10535039;28;20032;-52
2022/09/01 00:10:15;;;;;;;1.00;0.77;;;22.80;54.00;;;;;;10534731;28;20050;-48
2022/09/01 00:15:16;;;;;;;1.77;0.90;;;22.80;54.00;;;;;;10534532;28;20031;-52
2022/09/01 00:20:17;;;;;;;1.13;0.50;;;22.80;54.00;;;;;;10534372;28;20032;-52
2022/09/01 00:25:19;;;;;;;1.00;0.65;;;22.80;54.00;;;;;;10534946;28;20036;-52
2022/09/01 00:30:21;;;;;;;1.92;0.82;;;22.80;54.00;;;;;;10505375;28;20027;-49
2022/09/01 00:35:22;;;;;;;2.03;0.60;;;22.80;54.00;;;;;;10499226;28;20407;-48
2022/09/01 00:40:22;;;;;;;0.70;0.50;;;22.80;54.00;;;;;;10533347;28;20055;-50
2022/09/01 00:45:23;;;;;;;0.73;0.65;;;22.80;54.00;;;;;;10533583;28;20028;-50
2022/09/01 00:50:24;;;;;;;0.77;0.50;;;22.80;54.00;;;;;;10533556;28;20036;-52
2022/09/01 00:55:30;;;;;;;0.75;0.50;;;22.80;54.10;;;;;;10532957;28;20361;-52
2022/09/01 01:00:39;;;;;;;1.50;0.80;;;22.70;54.00;;;;;;10515207;28;20115;-53
2022/09/01 01:05:54;;;;;;;1.15;0.70;;;22.80;54.10;;;;;;10532512;28;20075;-52
2022/09/01 01:10:55;;;;;;;1.65;0.63;;;22.80;54.10;;;;;;10532729;28;20053;-52
2022/09/01 01:15:56;;;;;;;1.02;0.60;;;22.80;54.00;;;;;;10532209;28;20105;-53
2022/09/01 01:26:36;;;;;;;0.70;0.50;;;22.80;54.00;;;;;;10532176;28;20032;-51
2022/09/01 01:31:36;;;;;;;1.17;0.55;;;22.70;54.10;;;;;;10491758;28;20508;-51
2022/09/01 01:36:38;;;;;;;0.82;0.52;;;22.70;54.10;;;;;;10507141;28;20123;-52
2022/09/01 01:41:44;;;;;;;0.80;0.60;;;22.70;54.10;;;;;;10513467;28;20400;-51
2022/09/01 01:46:49;;;;;;;1.75;1.00;;;22.70;54.00;;;;;;10513409;28;20035;-51
2022/09/01 01:51:54;;;;;;;1.20;0.60;;;22.70;54.10;;;;;;10513145;28;20055;-52
2022/09/01 01:56:56;;;;;;;1.40;0.73;;;22.70;54.30;;;;;;10531111;28;20027;-52
2022/09/01 02:01:57;;;;;;;1.42;0.70;;;22.70;54.10;;;;;;10530707;28;20032;-52
2022/09/01 02:06:58;;;;;;;0.93;0.55;;;22.70;54.10;;;;;;10530247;28;20531;-49
2022/09/01 02:11:59;;;;;;;1.33;0.60;;;22.70;54.10;;;;;;10512066;28;20036;-52
2022/09/01 02:17:02;;;;;;;0.77;0.60;;;22.70;54.10;;;;;;10529999;28;20436;-52
2022/09/01 02:22:03;;;;;;;1.67;0.75;;;22.70;54.10;;;;;;10530291;28;20366;-51
2022/09/01 02:27:04;;;;;;;0.70;0.57;;;22.70;54.10;;;;;;10528397;28;20722;-48
2022/09/01 02:32:05;;;;;;;1.92;0.60;;;22.70;54.10;;;;;;10470364;28;20033;-48
2022/09/01 02:37:05;;;;;;;1.50;1.08;;;22.70;54.10;;;;;;10509835;28;20032;-49
2022/09/01 02:42:07;;;;;;;1.10;0.77;;;22.70;54.10;;;;;;10530340;28;20048;-50
2022/09/01 02:47:08;;;;;;;1.05;0.57;;;22.60;54.10;;;;;;10529388;28;20497;-51
2022/09/01 02:52:09;;;;;;;0.73;0.63;;;22.70;54.10;;;;;;10529909;28;20055;-51
2022/09/01 02:57:11;;;;;;;2.85;0.80;;;22.70;54.10;;;;;;10529633;28;20047;-52
2022/09/01 03:02:12;;;;;;;1.20;0.80;;;22.60;54.00;;;;;;10510952;28;20054;-52
2022/09/01 03:07:12;;;;;;;1.60;0.80;;;22.60;54.10;;;;;;10529615;28;20374;-52
2022/09/01 03:12:13;;;;;;;1.45;0.77;;;22.60;54.00;;;;;;10511027;28;20031;-52
2022/09/01 03:17:14;;;;;;;2.53;0.77;;;22.60;54.10;;;;;;10529476;28;20413;-49
2022/09/01 03:22:14;;;;;;;1.45;0.68;;;22.60;54.00;;;;;;10529658;28;20420;-51
2022/09/01 03:27:15;;;;;;;1.98;0.80;;;22.60;54.00;;;;;;10525405;28;20131;-52
2022/09/01 03:32:16;;;;;;;1.48;0.82;;;22.60;54.00;;;;;;10468704;28;20345;-51
2022/09/01 03:37:17;;;;;;;1.77;0.70;;;22.60;54.00;;;;;;10527841;28;20036;-52
2022/09/01 03:42:21;;;;;;;1.50;0.73;;;22.60;54.00;;;;;;10532645;28;20032;-52
2022/09/01 03:47:23;;;;;;;2.38;0.63;;;22.60;54.00;;;;;;10535922;28;20349;-48
2022/09/01 03:52:24;;;;;;;0.98;0.70;;;22.60;54.00;;;;;;10535577;28;20077;-49
2022/09/01 03:57:28;;;;;;;1.05;0.70;;;22.50;53.90;;;;;;10535405;28;20020;-52
2022/09/01 04:02:29;;;;;;;1.48;0.90;;;22.60;54.00;;;;;;10535085;28;20491;-51
2022/09/01 04:07:30;;;;;;;1.25;0.60;;;22.50;54.00;;;;;;10535113;28;20032;-52
2022/09/01 04:12:31;;;;;;;1.25;0.80;;;22.50;53.90;;;;;;10516547;28;20099;-52
2022/09/01 04:22:54;;;;;;;1.23;0.93;;;22.50;53.90;;;;;;10534631;28;20044;-51
2022/09/01 04:27:55;;;;;;;1.23;0.85;;;22.50;54.50;;;;;;10525529;28;20031;-52
2022/09/01 04:32:56;;;;;;;1.13;0.63;;;22.50;53.90;;;;;;10496944;28;20444;-51
2022/09/01 04:37:58;;;;;;;0.93;0.60;;;22.50;53.90;;;;;;10516119;28;20100;-53
2022/09/01 04:42:59;;;;;;;1.45;0.80;;;22.50;53.80;;;;;;10531327;28;20132;-51
2022/09/01 04:47:59;;;;;;;0.98;0.73;;;22.50;53.80;;;;;;10531561;28;20016;-50
2022/09/01 04:53:04;;;;;;;1.25;0.80;;;22.50;53.80;;;;;;10534187;28;20317;-52
2022/09/01 04:58:05;;;;;;;1.60;0.80;;;22.50;54.40;;;;;;10534991;28;20494;-51
2022/09/01 05:03:06;;;;;;;1.58;0.52;;;22.50;53.80;;;;;;10534326;28;20040;-50
2022/09/01 05:08:17;;;;;;;1.30;0.63;;;22.50;53.80;;;;;;10534759;28;20031;-51
2022/09/01 05:13:21;;;;;;;1.17;0.70;;;22.50;53.80;;;;;;10517799;28;20081;-50
2022/09/01 05:18:23;;;;;;;1.38;0.82;;;22.40;53.70;;;;;;10499426;28;20028;-51
2022/09/01 05:23:25;;;;;;;1.83;1.17;;;22.40;53.70;;;;;;10533733;28;20519;-51
2022/09/01 05:28:26;;;;;;;2.10;0.70;;;22.50;53.80;;;;;;10520744;28;20040;-52
2022/09/01 05:33:26;;;;;;;1.25;1.00;;;22.50;53.80;;;;;;10500825;28;20514;-49
2022/09/01 05:38:29;;;;;;;1.20;0.70;;;22.50;53.80;;;;;;10533874;28;20478;-49
2022/09/01 05:43:31;;;;;;;2.17;0.90;;;22.40;53.80;;;;;;10514937;28;20070;-52
2022/09/01 05:48:38;;;;;;;0.70;0.50;;;22.40;53.70;;;;;;10532885;28;20031;-51
2022/09/01 05:53:39;;;;;;;1.52;0.60;;;22.40;53.80;;;;;;10533114;28;20035;-52
2022/09/01 05:58:44;;;;;;;1.08;0.70;;;22.40;53.80;;;;;;10514423;28;20534;-50
2022/09/01 06:03:44;;;;;;;2.88;1.05;;;22.40;53.80;;;;;;10531951;28;20308;-53
2022/09/01 06:08:47;;;;;;;1.05;0.70;;;22.40;53.80;;;;;;10532550;28;20054;-49
2022/09/01 06:13:51;;;;;;;1.27;0.80;;;22.40;53.80;;;;;;10531995;28;20028;-52
2022/09/01 06:18:52;;;;;;;2.95;0.95;;;22.40;53.80;;;;;;10497296;28;20035;-53
2022/09/01 06:23:55;;;;;;;1.10;0.90;;;22.40;53.80;;;;;;10532043;28;20042;-51
2022/09/01 06:29:04;;;;;;;1.15;0.68;;;22.40;53.80;;;;;;10496868;28;20115;-52
2022/09/01 06:34:12;;;;;;;2.15;0.82;;;22.40;53.80;;;;;;10504180;28;20642;-49
2022/09/01 06:39:18;;;;;;;2.00;1.00;;;22.40;53.90;;;;;;10514143;28;20052;-51
2022/09/01 06:44:21;;;;;;;1.63;0.70;;;22.40;53.80;;;;;;10514251;28;20028;-52
2022/09/01 06:49:31;;;;;;;1.08;0.75;;;22.40;53.80;;;;;;10497100;28;20459;-51
2022/09/01 06:54:33;;;;;;;1.10;0.80;;;22.40;53.90;;;;;;10512921;28;20541;-52
2022/09/01 06:59:34;;;;;;;1.20;0.70;;;22.40;53.90;;;;;;10513144;28;20035;-51
2022/09/01 07:04:38;;;;;;;2.88;0.80;;;22.40;53.80;;;;;;10531219;28;20119;-50
2022/09/01 07:09:39;;;;;;;2.78;0.80;;;22.40;53.90;;;;;;10531422;28;20021;-51
2022/09/01 07:14:39;;;;;;;1.13;0.70;;;22.40;53.80;;;;;;10529525;28;20034;-48
2022/09/01 07:19:40;;;;;;;1.02;0.90;;;22.40;53.90;;;;;;10539044;28;20043;-48
2022/09/01 07:24:41;;;;;;;1.75;0.80;;;22.30;53.80;;;;;;10520437;28;20039;-49
2022/09/01 07:29:42;;;;;;;0.98;0.60;;;22.40;54.50;;;;;;10514652;28;20472;-49
2022/09/01 07:34:45;;;;;;;1.50;0.60;;;22.40;53.90;;;;;;10497583;28;20120;-50
2022/09/01 07:39:45;;;;;;;1.08;0.73;;;22.40;53.90;;;;;;10537695;28;20119;-52
2022/09/01 07:44:46;;;;;;;1.00;0.70;;;22.40;53.90;;;;;;10537566;28;20493;-51
2022/09/01 07:49:47;;;;;;;0.75;0.60;;;22.40;53.90;;;;;;10519496;28;20471;-53
2022/09/01 07:54:47;;;;;;;1.33;0.68;;;22.40;54.00;;;;;;10537417;28;20036;-48
2022/09/01 07:59:52;;;;;;;2.15;0.98;;;22.40;53.30;;;;;;10519021;28;20535;-53
2022/09/01 08:04:54;;;;;;;1.58;0.82;;;22.40;53.10;;;;;;10537233;28;20040;-52
2022/09/01 08:09:55;;;;;;;2.28;0.80;;;22.40;52.80;;;;;;10537056;28;20020;-53
2022/09/01 08:14:55;;;;;;;2.40;0.95;;;22.40;52.90;;;;;;10536836;28;20040;-52
2022/09/01 08:19:56;;;;;;;2.08;0.70;;;22.50;53.20;;;;;;10518441;28;20073;-53
2022/09/01 08:24:57;;;;;;;1.30;1.00;;;22.40;53.10;;;;;;10536780;28;20070;-52
2022/09/01 08:29:59;;;;;;;3.28;0.98;;;22.50;53.10;;;;;;10491771;28;20037;-52
2022/09/01 08:35:00;;;;;;;1.70;0.60;;;22.50;53.80;;;;;;10516158;28;20035;-51
2022/09/01 08:40:01;;;;;;;0.82;0.60;;;22.50;53.00;;;;;;10517451;28;20052;-52
2022/09/01 08:45:53;;;;;;;1.35;0.70;;;22.50;53.10;;;;;;10517326;28;20061;-52
2022/09/01 08:51:05;;;;;;;1.60;0.75;;;22.60;53.20;;;;;;10516762;28;20032;-51
2022/09/01 08:56:10;;;;;;;1.92;1.20;;;22.60;53.20;;;;;;10517738;28;20032;-51
2022/09/01 09:01:58;;;;;;;1.42;0.80;;;22.60;53.10;;;;;;10517029;28;20024;-52
2022/09/01 09:07:33;;;;;;;1.85;0.77;;;22.60;53.00;;;;;;10534618;28;20425;-52
2022/09/01 09:13:05;;;;;;;1.15;0.60;;;22.60;53.00;;;;;;10517242;28;20467;-51
2022/09/01 09:18:22;;;;;;;1.27;0.60;;;22.60;52.90;;;;;;10534762;28;20024;-52
2022/09/01 09:23:33;;;;;;;0.82;0.57;;;22.60;53.10;;;;;;10534167;28;20043;-52
2022/09/01 09:28:33;;;;;;;1.33;0.73;;;22.70;53.10;;;;;;10501976;28;20042;-50
2022/09/01 09:33:38;;;;;;;1.42;1.02;;;22.70;53.00;;;;;;10502043;28;20107;-52
2022/09/01 09:38:40;;;;;;;1.75;0.90;;;22.60;52.80;;;;;;10514466;28;20047;-52
2022/09/01 09:44:32;;;;;;;1.35;0.85;;;22.70;53.10;;;;;;10533175;28;20542;-49
2022/09/01 09:49:33;;;;;;;1.55;0.95;;;22.70;53.00;;;;;;10516561;28;20170;-50
2022/09/01 09:54:36;;;;;;;1.48;0.65;;;22.70;52.80;;;;;;10498181;28;20495;-53
2022/09/01 09:59:58;;;;;;;0.95;0.55;;;22.70;52.60;;;;;;10514443;28;20050;-52
2022/09/01 10:05:20;;;;;;;0.73;0.63;;;22.80;52.50;;;;;;10515548;28;20028;-49
2022/09/01 10:10:49;;;;;;;1.23;0.68;;;22.80;52.90;;;;;;10517465;28;20073;-50
2022/09/01 10:15:55;;;;;;;;;;;22.80;53.00;;;;;;10514935;28;20024;-52
2022/09/01 10:21:14;;;;;;;0.63;0.52;;;22.80;52.90;;;;;;10531916;28;19919;-50
2022/09/01 10:26:28;;;;;;;0.95;0.52;;;22.90;52.60;;;;;;10514522;28;20028;-52
2022/09/01 10:31:30;;;;;;;1.00;0.70;;;22.90;52.70;;;;;;10476450;28;20492;-51
2022/09/01 10:36:34;;;;;;;1.25;0.73;;;22.90;52.90;;;;;;10524779;28;20029;-52
2022/09/01 10:42:06;;;;;;;0.95;0.60;;;22.90;52.70;;;;;;10513259;28;20047;-52
2022/09/01 10:47:32;;;;;;;1.42;0.70;;;22.90;52.70;;;;;;10515985;28;20411;-50
2022/09/01 10:52:42;;;;;;;1.17;0.40;;;23.00;52.60;;;;;;10536464;28;20111;-53
2022/09/01 10:58:35;;;;;;;1.40;0.50;;;23.00;52.80;;;;;;10521639;28;20058;-51
2022/09/01 11:03:55;;;;;;;0.88;0.60;;;23.00;52.90;;;;;;10494156;28;20117;-52
2022/09/01 11:09:05;;;;;;;0.95;0.52;;;23.00;52.80;;;;;;10521458;28;20115;-52
2022/09/01 11:14:23;;;;;;;0.75;0.60;;;23.10;52.80;;;;;;10521633;28;20028;-54
2022/09/01 11:19:36;;;;;;;2.08;0.43;;;23.10;52.70;;;;;;10538730;28;20032;-51
2022/09/01 11:24:37;;;;;;;0.73;0.43;;;23.10;52.80;;;;;;10538521;28;20024;-51
2022/09/01 11:30:05;;;;;;;1.17;0.50;;;23.10;52.70;;;;;;10515798;28;20032;-52
2022/09/01 11:35:20;;;;;;;0.90;0.50;;;23.10;52.80;;;;;;10519083;28;20471;-53
2022/09/01 11:40:29;;;;;;;2.17;0.50;;;23.10;52.80;;;;;;10520652;28;20839;-53
2022/09/01 11:45:32;;;;;;;0.68;0.60;;;23.10;52.80;;;;;;10538038;28;20059;-53
2022/09/01 11:50:39;;;;;;;0.88;0.70;;;23.20;52.80;;;;;;10537935;28;20023;-50
2022/09/01 11:55:52;;;;;;;1.00;0.60;;;23.20;52.80;;;;;;10520095;28;20499;-53
2022/09/01 12:00:56;;;;;;;0.65;0.52;;;23.20;52.80;;;;;;10536619;28;20039;-51
2022/09/01 12:06:05;;;;;;;1.70;0.73;;;23.20;52.80;;;;;;10519212;28;20028;-52
2022/09/01 12:11:09;;;;;;;1.75;0.60;;;23.20;52.80;;;;;;10501871;28;20390;-49
2022/09/01 12:16:19;;;;;;;1.90;0.70;;;23.20;52.80;;;;;;10536675;28;20502;-53
2022/09/01 12:21:20;;;;;;;0.80;0.50;;;23.20;52.70;;;;;;10519976;28;20040;-50
2022/09/01 12:26:27;;;;;;;0.95;0.70;;;23.20;53.40;;;;;;10517872;28;20399;-52
2022/09/01 12:31:28;;;;;;;1.17;0.65;;;23.20;52.70;;;;;;10480190;28;20043;-51
2022/09/01 12:36:33;;;;;;;1.02;0.70;;;23.20;52.70;;;;;;10528502;28;20150;-52
2022/09/01 12:41:37;;;;;;;1.85;0.68;;;23.30;52.80;;;;;;10535982;28;20044;-52
2022/09/01 12:46:42;;;;;;;0.75;0.50;;;23.30;52.70;;;;;;10535399;28;20173;-53
2022/09/01 12:51:44;;;;;;;1.02;0.60;;;23.30;52.60;;;;;;10516882;28;20028;-53
2022/09/01 12:56:48;;;;;;;1.83;0.60;;;23.30;52.60;;;;;;10535228;28;20379;-53
2022/09/01 13:01:49;;;;;;;0.77;0.60;;;23.30;52.70;;;;;;10516900;28;20494;-49
2022/09/01 13:06:52;;;;;;;0.80;0.57;;;23.30;52.70;;;;;;10516362;28;20032;-52
2022/09/01 13:11:53;;;;;;;1.15;0.55;;;23.30;52.60;;;;;;10516499;28;20359;-52
2022/09/01 13:16:53;;;;;;;0.90;0.60;;;23.30;52.70;;;;;;10533509;28;20028;-52
2022/09/01 13:21:54;;;;;;;0.73;0.50;;;23.30;52.60;;;;;;10516161;28;20032;-53
2022/09/01 13:26:56;;;;;;;0.60;0.50;;;23.30;52.60;;;;;;10515509;28;20040;-48
2022/09/01 13:31:57;;;;;;;1.13;0.65;;;23.30;52.80;;;;;;10491669;28;20024;-51
2022/09/01 13:36:57;;;;;;;2.55;0.60;;;23.30;52.80;;;;;;10512282;28;20355;-50
2022/09/01 13:41:58;;;;;;;1.00;0.60;;;23.30;52.80;;;;;;10532925;28;20055;-49
2022/09/01 13:46:59;;;;;;;0.68;0.40;;;23.30;52.50;;;;;;10532953;28;20032;-51
2022/09/01 13:52:00;;;;;;;1.95;0.68;;;23.30;52.60;;;;;;10533347;28;20086;-51
2022/09/01 13:57:00;;;;;;;0.70;0.50;;;23.30;52.80;;;;;;10514552;28;20124;-52
2022/09/01 14:02:01;;;;;;;0.77;0.60;;;23.20;52.80;;;;;;10533021;28;20043;-49
2022/09/01 14:07:02;;;;;;;1.73;0.80;;;23.20;52.80;;;;;;10532241;28;20028;-52
2022/09/01 14:12:05;;;;;;;0.80;0.70;;;23.20;52.80;;;;;;10532187;28;20024;-51
2022/09/01 14:17:05;;;;;;;1.48;0.70;;;23.20;52.50;;;;;;10532312;28;20119;-53
2022/09/01 14:22:07;;;;;;;1.08;0.70;;;23.20;52.10;;;;;;10531798;28;20495;-50
2022/09/01 14:27:07;;;;;;;2.03;0.50;;;23.20;51.80;;;;;;10511365;28;20085;-53
2022/09/01 14:32:08;;;;;;;2.78;0.70;;;23.20;51.70;;;;;;10489923;28;20092;-52
2022/09/01 14:37:09;;;;;;;1.60;0.80;;;23.10;52.10;;;;;;10529604;28;20028;-51
2022/09/01 14:42:10;;;;;;;1.80;0.90;;;23.20;52.10;;;;;;10531588;28;20164;-50
2022/09/01 14:47:12;;;;;;;0.57;0.50;;;23.20;52.20;;;;;;10531416;28;20024;-50
2022/09/01 14:52:13;;;;;;;1.17;0.60;;;23.10;52.20;;;;;;10531107;28;20158;-52
2022/09/01 14:57:14;;;;;;;0.85;0.50;;;23.10;51.30;;;;;;10496627;28;20513;-53
2022/09/01 15:02:15;;;;;;;2.88;0.85;;;23.10;51.70;;;;;;10530978;28;20039;-53
2022/09/01 15:07:16;;;;;;;1.05;0.60;;;23.10;51.10;;;;;;10513072;28;20035;-52
2022/09/01 15:12:16;;;;;;;1.38;0.95;;;23.10;51.20;;;;;;10530942;28;20734;-52
2022/09/01 15:17:17;;;;;;;0.60;0.52;;;23.10;51.80;;;;;;10531198;28;20032;-53
2022/09/01 15:22:19;;;;;;;1.10;0.60;;;23.10;51.60;;;;;;10531171;28;20030;-52
2022/09/01 15:27:19;;;;;;;0.80;0.50;;;23.10;51.70;;;;;;10527080;28;20455;-49
2022/09/01 15:32:20;;;;;;;1.23;0.80;;;23.10;51.40;;;;;;10488676;28;20047;-53
2022/09/01 15:37:21;;;;;;;1.02;0.60;;;23.10;51.50;;;;;;10514692;28;20070;-53
2022/09/01 15:42:21;;;;;;;0.75;0.47;;;23.10;51.70;;;;;;10538317;28;20048;-50
2022/09/01 15:47:22;;;;;;;0.65;0.50;;;23.20;52.10;;;;;;10537962;28;20074;-53
2022/09/01 15:52:23;;;;;;;1.55;0.70;;;23.10;51.20;;;;;;10537603;28;20464;-51
2022/09/01 15:57:24;;;;;;;0.95;0.85;;;23.10;51.30;;;;;;10519383;28;20471;-52
2022/09/01 16:02:25;;;;;;;0.98;0.68;;;23.20;51.30;;;;;;10537644;28;20035;-52
2022/09/01 16:07:26;;;;;;;0.85;0.77;;;23.10;51.30;;;;;;10536952;28;20107;-52
2022/09/01 16:12:27;;;;;;;1.20;0.80;;;23.10;51.70;;;;;;10518511;28;20016;-51
2022/09/01 16:17:50;;;;;;;1.38;0.60;;;23.10;51.80;;;;;;10536832;28;20040;-48
2022/09/01 16:23:18;;;;;;;1.55;0.70;;;23.10;51.90;;;;;;10518326;28;20024;-49
2022/09/01 16:28:34;;;;;;;1.55;0.90;;;23.10;51.80;;;;;;10507603;28;20429;-51
2022/09/01 16:33:35;;;;;;;1.40;0.70;;;23.10;51.80;;;;;;10504634;28;20034;-50
2022/09/01 16:38:44;;;;;;;0.90;0.73;;;23.10;51.70;;;;;;10518175;28;20558;-50
2022/09/01 16:44:16;;;;;;;1.65;0.70;;;23.10;51.80;;;;;;10517496;28;20035;-51
2022/09/01 16:49:46;;;;;;;1.27;0.73;;;23.10;51.90;;;;;;10518551;28;20024;-51
2022/09/01 16:55:21;;;;;;;;;;;23.10;51.70;;;;;;10518035;28;20020;-52
2022/09/01 17:00:45;;;;;;;1.05;0.70;;;23.10;52.00;;;;;;10520121;28;19919;-47
2022/09/01 17:06:19;;;;;;;0.57;0.57;;;23.10;51.70;;;;;;10518768;28;20032;-51
2022/09/01 17:11:43;;;;;;;1.08;0.90;;;23.10;51.80;;;;;;10516344;28;20032;-52
2022/09/01 17:16:45;;;;;;;1.40;0.73;;;23.10;52.10;;;;;;10534411;28;20035;-50
2022/09/01 17:22:02;;;;;;;1.40;0.60;;;23.10;51.90;;;;;;10534077;28;20429;-50
2022/09/01 17:27:12;;;;;;;1.10;0.57;;;23.10;51.90;;;;;;10515450;28;20032;-51
2022/09/01 17:32:51;;;;;;;0.93;0.75;;;23.10;51.70;;;;;;10492393;28;20078;-49
2022/09/01 17:38:26;;;;;;;0.70;0.50;;;23.10;52.00;;;;;;10450267;28;20040;-51
2022/09/01 17:44:11;;;;;;;1.08;0.80;;;23.10;51.90;;;;;;10449990;28;20500;-52
2022/09/01 17:49:35;;;;;;;0.57;0.50;;;23.10;52.00;;;;;;10450101;28;20071;-51
2022/09/01 17:55:06;;;;;;;1.08;0.60;;;23.10;52.10;;;;;;10433346;28;20036;-53
2022/09/01 18:00:33;;;;;;;1.00;0.90;;;23.20;52.00;;;;;;10433619;28;20489;-52
2022/09/01 18:06:29;;;;;;;2.95;0.75;;;23.10;52.00;;;;;;10432467;28;20112;-49
2022/09/01 18:12:08;;;;;;;0.95;0.70;;;23.10;52.10;;;;;;10448773;28;20047;-53
2022/09/01 18:17:28;;;;;;;0.50;0.47;;;23.10;52.20;;;;;;10431575;28;20048;-53
2022/09/01 18:22:39;;;;;;;1.50;0.70;;;23.10;52.30;;;;;;10431849;28;20394;-53
2022/09/01 18:27:45;;;;;;;0.75;0.60;;;23.10;52.30;;;;;;10438191;28;20017;-52
2022/09/01 18:33:17;;;;;;;1.10;0.60;;;23.10;52.30;;;;;;10493295;28;20024;-51
2022/09/01 18:38:31;;;;;;;1.10;0.60;;;23.20;52.40;;;;;;10516003;28;20457;-52
2022/09/01 18:44:22;;;;;;;0.88;0.73;;;23.20;52.00;;;;;;10531694;28;20073;-54
2022/09/01 18:49:41;;;;;;;1.52;0.68;;;23.20;52.20;;;;;;10431263;28;20082;-50
2022/09/01 18:55:21;;;;;;;0.80;0.50;;;23.10;52.20;;;;;;10516565;28;20147;-51
2022/09/01 19:00:41;;;;;;;0.98;0.52;;;23.20;52.30;;;;;;10515201;28;20024;-49
2022/09/01 19:06:07;;;;;;;0.90;0.70;;;23.20;51.90;;;;;;10512158;28;20039;-51
2022/09/01 19:11:35;;;;;;;1.10;0.63;;;23.20;51.90;;;;;;10513076;28;20479;-49
2022/09/01 19:17:07;;;;;;;1.45;1.23;;;23.20;51.80;;;;;;10536134;28;20043;-49
2022/09/01 19:22:16;;;;;;;0.77;0.63;;;23.20;51.80;;;;;;10518750;28;20024;-52
2022/09/01 19:27:27;;;;;;;0.80;0.73;;;23.10;51.80;;;;;;10515940;28;20028;-51
2022/09/01 19:32:31;;;;;;;1.98;0.70;;;23.20;51.90;;;;;;10495670;28;20535;-50
2022/09/01 19:37:32;;;;;;;1.17;0.70;;;23.20;51.90;;;;;;10518716;28;20051;-51
2022/09/01 19:42:45;;;;;;;0.80;0.68;;;23.20;51.90;;;;;;10536475;28;20055;-49
2022/09/01 19:48:08;;;;;;;1.75;0.70;;;23.10;51.90;;;;;;10536311;28;20487;-50
2022/09/01 19:53:37;;;;;;;1.92;0.68;;;23.10;51.90;;;;;;10518818;28;20032;-49
2022/09/01 19:58:48;;;;;;;1.35;0.70;;;23.10;51.90;;;;;;10535589;28;20032;-52
2022/09/01 20:03:56;;;;;;;1.33;0.73;;;23.10;51.90;;;;;;10535083;28;20028;-52
2022/09/01 20:09:11;;;;;;;0.97;0.60;;;23.10;51.90;;;;;;10517935;28;20107;-52
2022/09/01 20:14:31;;;;;;;1.13;0.75;;;23.10;51.80;;;;;;10517300;28;20028;-51
2022/09/01 20:19:54;;;;;;;1.10;0.70;;;23.10;51.90;;;;;;10535491;28;20039;-51
2022/09/01 20:25:08;;;;;;;1.40;1.00;;;23.10;51.90;;;;;;10534088;28;20036;-51
2022/09/01 20:30:19;;;;;;;0.90;0.70;;;23.10;52.00;;;;;;10507232;28;20059;-52
2022/09/01 20:35:57;;;;;;;1.77;0.80;;;23.10;52.00;;;;;;10517612;28;20402;-52
2022/09/01 20:41:07;;;;;;;1.48;0.80;;;23.10;52.10;;;;;;10525251;28;20257;-50
2022/09/01 20:46:08;;;;;;;1.15;0.70;;;23.10;51.90;;;;;;10499310;28;20513;-51
2022/09/01 20:51:43;;;;;;;1.70;1.10;;;23.10;51.90;;;;;;10533376;28;20035;-51
2022/09/01 20:57:00;;;;;;;1.85;0.88;;;23.10;51.90;;;;;;10500918;28;20024;-50
2022/09/01 21:02:23;;;;;;;1.20;0.90;;;23.10;51.70;;;;;;10532997;28;20036;-49
2022/09/01 21:07:35;;;;;;;1.00;0.90;;;23.10;51.80;;;;;;10532541;28;20035;-49
2022/09/01 21:13:01;;;;;;;2.25;0.80;;;23.10;51.80;;;;;;10514540;28;20548;-51
2022/09/01 21:18:16;;;;;;;2.10;0.80;;;23.10;51.70;;;;;;10532820;28;20114;-50
2022/09/01 21:23:18;;;;;;;0.75;0.45;;;23.10;51.70;;;;;;10513944;28;20034;-50
2022/09/01 21:28:21;;;;;;;1.50;0.70;;;23.10;51.60;;;;;;10520148;28;20396;-48
2022/09/01 21:33:28;;;;;;;1.65;0.77;;;23.00;51.60;;;;;;10497695;28;20028;-49
2022/09/01 21:38:29;;;;;;;1.73;0.73;;;23.00;51.60;;;;;;10531947;28;20081;-49
2022/09/01 21:43:35;;;;;;;1.35;0.85;;;23.00;51.60;;;;;;10513210;28;20017;-48
2022/09/01 21:48:36;;;;;;;1.85;0.90;;;23.00;51.60;;;;;;10513590;28;20432;-52
2022/09/01 21:53:37;;;;;;;1.67;0.85;;;23.00;51.70;;;;;;10531041;28;20030;-49
2022/09/01 21:58:38;;;;;;;1.10;0.70;;;23.00;51.60;;;;;;10530926;28;20479;-48
2022/09/01 22:03:39;;;;;;;1.15;1.00;;;23.00;52.20;;;;;;10531031;28;20032;-49
2022/09/01 22:08:40;;;;;;;1.88;0.88;;;23.00;51.50;;;;;;10530773;28;20024;-48
2022/09/01 22:13:41;;;;;;;1.13;0.77;;;23.00;51.50;;;;;;10512654;28;20054;-50
2022/09/01 22:18:42;;;;;;;1.00;0.82;;;23.00;51.40;;;;;;10530529;28;20127;-52
2022/09/01 22:23:43;;;;;;;0.40;0.40;;;23.00;51.40;;;;;;10511779;28;20032;-49
2022/09/01 22:28:44;;;;;;;1.17;0.63;;;23.00;52.00;;;;;;10515515;28;20032;-50
2022/09/01 22:33:45;;;;;;;1.13;0.60;;;23.00;51.40;;;;;;10499333;28;20028;-51
2022/09/01 22:38:46;;;;;;;1.23;0.65;;;23.00;51.40;;;;;;10511627;28;20105;-52
2022/09/01 22:43:47;;;;;;;1.02;0.70;;;23.00;51.40;;;;;;10511362;28;20024;-48
2022/09/01 22:48:48;;;;;;;1.20;0.80;;;23.00;51.30;;;;;;10541569;28;20482;-49
2022/09/01 22:53:49;;;;;;;1.35;0.82;;;23.00;51.40;;;;;;10525380;28;20028;-50
2022/09/01 22:58:53;;;;;;;1.10;0.70;;;23.00;51.40;;;;;;10543378;28;20039;-50
2022/09/01 23:03:58;;;;;;;1.05;0.65;;;23.00;51.20;;;;;;10543223;28;20035;-52
2022/09/01 23:09:01;;;;;;;1.08;0.50;;;23.00;51.30;;;;;;10541346;28;20027;-53
2022/09/01 23:14:03;;;;;;;0.75;0.70;;;23.00;51.20;;;;;;10508316;28;20024;-50
2022/09/01 23:19:04;;;;;;;1.00;0.70;;;23.00;51.20;;;;;;10543566;28;20051;-50
2022/09/01 23:24:05;;;;;;;1.13;0.75;;;22.90;51.20;;;;;;10544024;28;20081;-51
2022/09/01 23:29:08;;;;;;;1.67;0.70;;;22.90;51.20;;;;;;10524583;28;20021;-49
2022/09/01 23:34:08;;;;;;;0.80;0.60;;;23.00;51.20;;;;;;10498147;28;20403;-50
2022/09/01 23:39:09;;;;;;;0.63;0.47;;;22.90;51.10;;;;;;10524216;28;20048;-50
2022/09/01 23:44:11;;;;;;;1.20;0.80;;;22.90;51.20;;;;;;10542115;28;20403;-52
2022/09/01 23:49:15;;;;;;;1.52;0.75;;;22.90;51.80;;;;;;10542533;28;20483;-52
2022/09/01 23:54:16;;;;;;;1.20;0.70;;;23.00;51.20;;;;;;10542218;28;20111;-47
2022/09/01 23:59:16;;;;;;;0.57;0.55;;;22.90;51.10;;;;;;10537300;28;20384;-51
